Time;durP1;ratioP1;P1;durP2;ratioP2;P2;SDS_P1;SDS_P2;PMS_P1;PMS_P2;Temp;Humidity;BMP_temperature;BMP_pressure;BME280_temperature;BME280_humidity;BME280_pressure;Samples;Min_cycle;Max_cycle;Signal;HPM_P1;HPM_P2
2022/04/03 00:00:37;;;;;;;5.05;4.22;;;-3.00;99.90;;;;;;5042325;28;20418;-87
2022/04/03 00:03:04;;;;;;;7.35;4.82;;;-3.00;99.90;;;;;;5043683;28;20401;-87
2022/04/03 00:05:35;;;;;;;14.98;9.07;;;-3.10;99.90;;;;;;5041169;28;20382;-88
2022/04/03 00:08:00;;;;;;;11.25;7.20;;;-3.10;99.90;;;;;;5044106;28;20400;-87
2022/04/03 00:10:26;;;;;;;14.70;8.50;;;-3.10;99.90;;;;;;5042901;28;20468;-88
2022/04/03 00:12:52;;;;;;;14.23;9.52;;;-3.20;99.90;;;;;;5043874;28;20381;-87
2022/04/03 00:15:18;;;;;;;15.45;9.10;;;-3.20;99.90;;;;;;5049045;28;20391;-87
2022/04/03 00:17:46;;;;;;;15.00;9.18;;;-3.30;99.90;;;;;;5082129;28;20387;-86
2022/04/03 00:20:13;;;;;;;12.98;7.95;;;-3.30;99.90;;;;;;5046026;28;20438;-87
2022/04/03 00:22:39;;;;;;;14.32;9.30;;;-3.40;99.90;;;;;;5044557;28;20397;-87
2022/04/03 00:25:05;;;;;;;21.13;14.13;;;-3.50;99.90;;;;;;5048712;28;20380;-86
2022/04/03 00:27:31;;;;;;;21.67;14.50;;;-3.40;99.90;;;;;;5056458;28;20415;-87
2022/04/03 00:29:56;;;;;;;28.93;18.73;;;-3.40;99.90;;;;;;5053392;28;20399;-86
2022/04/03 00:32:22;;;;;;;23.57;15.63;;;-3.40;99.90;;;;;;5053827;28;20387;-87
2022/04/03 00:34:48;;;;;;;11.83;8.33;;;-3.50;99.90;;;;;;5054030;28;20380;-86
2022/04/03 00:37:13;;;;;;;12.47;8.40;;;-3.50;99.90;;;;;;5054549;28;20389;-86
2022/04/03 00:39:39;;;;;;;12.30;9.13;;;-3.10;99.90;;;;;;5051667;28;20375;-86
2022/04/03 00:42:09;;;;;;;15.23;11.10;;;-3.30;99.90;;;;;;5050833;28;20420;-86
2022/04/03 00:44:35;;;;;;;17.15;10.45;;;-3.30;99.90;;;;;;5050462;28;20434;-86
2022/04/03 00:47:03;;;;;;;16.27;11.47;;;-3.50;99.90;;;;;;5052346;28;20467;-86
2022/04/03 00:49:29;;;;;;;16.10;11.32;;;-3.50;99.90;;;;;;5052281;28;20809;-86
2022/04/03 00:51:55;;;;;;;13.23;10.30;;;-3.50;99.90;;;;;;5052360;28;20411;-86
2022/04/03 00:54:20;;;;;;;14.18;9.90;;;-3.50;99.90;;;;;;5052608;28;20478;-86
2022/04/03 00:56:46;;;;;;;14.33;9.93;;;-3.50;99.90;;;;;;5053754;28;20395;-86
2022/04/03 00:59:13;;;;;;;18.10;10.73;;;-3.40;99.90;;;;;;5051047;28;20431;-86
2022/04/03 01:01:41;;;;;;;17.20;11.48;;;-3.00;99.90;;;;;;5050541;28;20450;-87
2022/04/03 01:04:07;;;;;;;17.75;11.35;;;-3.40;99.90;;;;;;5049980;28;20380;-86
2022/04/03 01:06:33;;;;;;;21.30;15.20;;;-3.40;99.90;;;;;;5052985;28;20387;-86
2022/04/03 01:08:59;;;;;;;25.52;16.92;;;-3.30;99.90;;;;;;5054565;28;20447;-87
2022/04/03 01:11:25;;;;;;;25.30;16.70;;;-3.30;99.90;;;;;;5055131;28;20387;-85
2022/04/03 01:13:52;;;;;;;19.15;12.13;;;-3.10;99.90;;;;;;5053714;28;20443;-86
2022/04/03 01:16:18;;;;;;;21.42;13.00;;;-3.00;99.90;;;;;;5053787;28;20872;-87
2022/04/03 01:18:44;;;;;;;15.60;10.77;;;-2.90;99.90;;;;;;5052218;28;20380;-86
2022/04/03 01:21:10;;;;;;;16.67;11.23;;;-3.10;99.90;;;;;;5052393;28;20404;-86
2022/04/03 01:23:36;;;;;;;17.13;11.35;;;-2.70;99.90;;;;;;5052625;28;20835;-86
2022/04/03 01:26:02;;;;;;;15.18;9.63;;;-2.70;99.90;;;;;;5051051;28;20437;-87
2022/04/03 01:28:28;;;;;;;13.02;8.45;;;-2.80;99.90;;;;;;5051493;28;20719;-86
2022/04/03 01:30:53;;;;;;;12.75;8.50;;;-2.50;99.90;;;;;;5050903;28;20400;-87
2022/04/03 01:33:19;;;;;;;8.50;7.00;;;-2.00;99.90;;;;;;5052087;28;20429;-87
2022/04/03 01:35:45;;;;;;;10.17;7.53;;;-2.90;99.90;;;;;;5050239;28;20380;-86
2022/04/03 01:38:11;;;;;;;9.27;6.83;;;-2.30;99.90;;;;;;5051749;28;20463;-86
2022/04/03 01:40:37;;;;;;;8.18;6.10;;;-2.20;99.90;;;;;;5049632;28;20390;-86
2022/04/03 01:43:04;;;;;;;8.43;6.47;;;-2.00;99.90;;;;;;5050203;28;20395;-87
2022/04/03 01:45:29;;;;;;;7.45;6.30;;;-1.90;99.90;;;;;;5049031;28;20403;-85
2022/04/03 01:47:55;;;;;;;7.77;6.40;;;-2.00;99.90;;;;;;5050674;28;20466;-86
2022/04/03 01:50:21;;;;;;;8.00;5.97;;;-1.90;99.90;;;;;;5049465;28;20958;-86
2022/04/03 01:52:46;;;;;;;6.65;5.95;;;-1.90;99.90;;;;;;5050268;28;20385;-86
2022/04/03 01:55:12;;;;;;;7.45;6.30;;;-1.80;99.90;;;;;;5053204;28;20433;-86
2022/04/03 01:57:38;;;;;;;6.85;5.60;;;-1.90;99.90;;;;;;5052752;28;20382;-87
2022/04/03 02:00:09;;;;;;;12.95;5.97;;;-1.80;99.90;;;;;;5056895;28;20415;-87
2022/04/03 02:02:36;;;;;;;21.77;8.15;;;-1.70;99.90;;;;;;5056037;28;20414;-86
2022/04/03 02:05:02;;;;;;;10.87;5.80;;;-1.70;99.90;;;;;;5056832;28;20452;-87
2022/04/03 02:07:29;;;;;;;7.60;5.10;;;-0.80;99.90;;;;;;5055720;28;20742;-86
2022/04/03 02:09:54;;;;;;;10.32;5.68;;;-1.20;99.90;;;;;;5055479;28;20376;-86
2022/04/03 02:12:20;;;;;;;7.25;5.00;;;-1.70;99.90;;;;;;5056199;28;20485;-86
2022/04/03 02:14:46;;;;;;;9.63;5.40;;;-1.40;99.90;;;;;;5056136;28;20380;-87
2022/04/03 02:17:11;;;;;;;6.05;5.13;;;-1.50;99.90;;;;;;5056596;28;20396;-86
2022/04/03 02:19:37;;;;;;;6.83;5.57;;;-1.50;99.90;;;;;;5054309;28;20416;-86
2022/04/03 02:22:03;;;;;;;7.13;5.33;;;-1.50;99.90;;;;;;5053421;28;20449;-86
2022/04/03 02:24:29;;;;;;;7.93;5.38;;;-1.50;99.90;;;;;;5052503;28;20472;-86
2022/04/03 02:26:55;;;;;;;5.57;4.97;;;-0.70;99.90;;;;;;5053773;28;20818;-87
2022/04/03 02:29:20;;;;;;;5.93;5.00;;;-0.80;99.90;;;;;;5053433;28;20378;-86
2022/04/03 02:31:46;;;;;;;6.07;4.67;;;-0.90;99.90;;;;;;5051790;28;20880;-87
2022/04/03 02:34:12;;;;;;;8.03;5.20;;;-1.30;99.90;;;;;;5052136;28;20395;-86
2022/04/03 02:36:40;;;;;;;6.53;5.10;;;-1.10;99.90;;;;;;5066286;28;20376;-87
2022/04/03 02:39:06;;;;;;;6.25;5.05;;;-1.30;99.90;;;;;;5055435;28;20882;-86
2022/04/03 02:41:32;;;;;;;6.30;5.00;;;-1.10;99.90;;;;;;5055899;28;20421;-87
2022/04/03 02:43:58;;;;;;;5.80;4.90;;;-1.10;99.90;;;;;;5060314;28;20411;-86
2022/04/03 02:46:23;;;;;;;7.90;4.90;;;-1.00;99.90;;;;;;5058708;28;20401;-86
2022/04/03 02:48:49;;;;;;;7.43;5.03;;;-0.20;99.90;;;;;;5058205;28;20969;-87
2022/04/03 02:51:15;;;;;;;4.90;4.33;;;-0.90;99.90;;;;;;5053760;28;20971;-86
2022/04/03 02:53:41;;;;;;;6.90;4.60;;;-0.90;99.90;;;;;;5054119;28;20387;-86
2022/04/03 02:56:06;;;;;;;5.87;4.80;;;-0.90;99.90;;;;;;5054624;28;20384;-87
2022/04/03 02:58:32;;;;;;;6.97;4.73;;;-1.00;99.90;;;;;;5053504;28;20474;-86
2022/04/03 03:00:58;;;;;;;5.57;4.90;;;-0.70;99.90;;;;;;5053213;28;20391;-86
2022/04/03 03:03:23;;;;;;;7.57;5.03;;;-0.60;99.90;;;;;;5054421;28;20380;-87
2022/04/03 03:05:49;;;;;;;7.07;5.18;;;-0.80;99.90;;;;;;5052089;28;20451;-86
2022/04/03 03:08:14;;;;;;;7.70;5.30;;;-0.80;99.90;;;;;;5053552;28;20372;-87
2022/04/03 03:10:40;;;;;;;7.82;4.82;;;-0.90;99.90;;;;;;5052417;28;20898;-86
2022/04/03 03:13:06;;;;;;;7.13;5.10;;;-0.20;99.90;;;;;;5052750;28;20384;-87
2022/04/03 03:15:32;;;;;;;6.53;5.50;;;-0.90;99.90;;;;;;5053276;28;20471;-87
2022/04/03 03:17:57;;;;;;;6.60;4.77;;;-1.10;99.90;;;;;;5053740;28;21570;-87
2022/04/03 03:20:23;;;;;;;5.07;4.47;;;-1.00;99.90;;;;;;5052177;28;20864;-86
2022/04/03 03:22:48;;;;;;;6.13;4.50;;;-1.10;99.90;;;;;;5051869;28;20396;-87
2022/04/03 03:25:14;;;;;;;6.80;4.90;;;-1.00;99.90;;;;;;5052226;28;20376;-86
2022/04/03 03:27:40;;;;;;;7.77;4.90;;;-0.80;99.90;;;;;;5052604;28;20875;-86
2022/04/03 03:30:07;;;;;;;6.25;4.95;;;-0.80;99.90;;;;;;5053667;28;20865;-87
2022/04/03 03:32:33;;;;;;;5.75;4.97;;;-0.80;99.90;;;;;;5052917;28;20486;-87
2022/04/03 03:34:59;;;;;;;5.82;4.72;;;-0.90;99.90;;;;;;5052068;28;20480;-87
2022/04/03 03:37:25;;;;;;;6.60;4.95;;;-1.00;99.90;;;;;;5054254;28;20387;-87
2022/04/03 03:39:53;;;;;;;5.70;4.97;;;-1.10;99.90;;;;;;5051161;28;20387;-86
2022/04/03 03:42:19;;;;;;;5.05;4.47;;;-0.90;99.90;;;;;;5050589;28;20469;-87
2022/04/03 03:44:45;;;;;;;4.90;4.47;;;-0.50;99.90;;;;;;5050792;28;20380;-87
2022/04/03 03:47:11;;;;;;;5.87;4.70;;;-1.00;99.90;;;;;;5051154;28;20391;-86
2022/04/03 03:49:38;;;;;;;7.28;5.03;;;-0.90;99.90;;;;;;5051841;28;20376;-86
2022/04/03 03:52:04;;;;;;;6.10;4.40;;;-1.10;99.90;;;;;;5051739;28;20445;-87
2022/04/03 03:54:30;;;;;;;6.38;5.00;;;-0.90;99.90;;;;;;5054676;28;20406;-87
2022/04/03 03:56:55;;;;;;;5.75;4.47;;;-1.20;99.90;;;;;;5052413;28;20484;-86
2022/04/03 03:59:21;;;;;;;5.22;4.72;;;-0.70;99.90;;;;;;5053402;28;21072;-86
2022/04/03 04:01:47;;;;;;;5.65;4.43;;;-0.90;99.90;;;;;;5051695;28;20450;-87
2022/04/03 04:04:12;;;;;;;5.50;4.55;;;-1.00;99.90;;;;;;5052292;28;20379;-86
2022/04/03 04:06:38;;;;;;;5.18;4.60;;;-0.20;99.90;;;;;;5051844;28;20394;-86
2022/04/03 04:09:04;;;;;;;6.53;4.70;;;-0.80;99.90;;;;;;5052064;28;20379;-86
2022/04/03 04:11:30;;;;;;;9.20;5.07;;;-1.00;99.90;;;;;;5051565;28;20384;-87
2022/04/03 04:13:56;;;;;;;9.13;4.82;;;-0.50;99.90;;;;;;5051771;28;20383;-87
2022/04/03 04:16:21;;;;;;;11.27;5.13;;;-1.00;99.90;;;;;;5051340;28;20372;-86
2022/04/03 04:18:47;;;;;;;7.20;4.93;;;-1.00;99.90;;;;;;5051912;28;20781;-87
2022/04/03 04:21:14;;;;;;;7.55;4.63;;;-1.30;99.90;;;;;;5050755;28;20392;-87
2022/04/03 04:23:40;;;;;;;5.45;4.43;;;-1.10;99.90;;;;;;5051655;28;20392;-86
2022/04/03 04:26:06;;;;;;;7.00;4.47;;;-0.90;99.90;;;;;;5052919;28;20866;-86
2022/04/03 04:28:32;;;;;;;4.90;4.40;;;-1.00;99.90;;;;;;5053978;28;20387;-87
2022/04/03 04:30:58;;;;;;;5.47;4.37;;;-1.40;99.90;;;;;;5054324;28;20478;-88
2022/04/03 04:33:25;;;;;;;5.37;4.43;;;-1.50;99.90;;;;;;5053828;28;20774;-87
2022/04/03 04:35:51;;;;;;;5.47;4.18;;;-0.60;99.90;;;;;;5053149;28;20380;-87
2022/04/03 04:38:17;;;;;;;6.20;4.30;;;-1.60;99.90;;;;;;5053371;28;20765;-87
2022/04/03 04:40:43;;;;;;;5.75;4.82;;;-1.60;99.90;;;;;;5050903;28;20375;-88
2022/04/03 04:43:10;;;;;;;5.68;4.65;;;-0.80;99.90;;;;;;5054714;28;20518;-87
2022/04/03 04:45:36;;;;;;;5.13;3.90;;;-0.70;99.90;;;;;;5054097;28;20388;-87
2022/04/03 04:48:01;;;;;;;5.28;4.18;;;-1.60;99.90;;;;;;5052323;28;20387;-87
2022/04/03 04:50:28;;;;;;;5.50;4.65;;;-1.40;99.90;;;;;;5051722;28;20388;-88
2022/04/03 04:52:55;;;;;;;6.35;4.30;;;-0.60;99.90;;;;;;5053115;28;20385;-87
2022/04/03 04:55:20;;;;;;;5.47;4.20;;;-1.80;99.90;;;;;;5052025;28;20448;-88
2022/04/03 04:57:53;;;;;;;5.57;4.20;;;-1.10;99.90;;;;;;5052042;28;20795;-87
2022/04/03 05:00:21;;;;;;;4.45;4.00;;;-1.50;99.90;;;;;;5052685;28;20376;-88
2022/04/03 05:02:47;;;;;;;6.18;3.78;;;-1.30;99.90;;;;;;5050110;28;20407;-87
2022/04/03 05:05:14;;;;;;;5.68;4.25;;;-1.30;99.90;;;;;;5050741;28;20406;-87
2022/04/03 05:07:41;;;;;;;5.70;4.80;;;-1.30;99.90;;;;;;5051399;28;20392;-87
2022/04/03 05:10:08;;;;;;;5.57;4.15;;;-0.90;99.90;;;;;;5050938;28;20368;-87
2022/04/03 05:12:35;;;;;;;6.45;4.60;;;-1.10;99.90;;;;;;5052737;28;20459;-86
2022/04/03 05:15:01;;;;;;;5.70;3.95;;;-1.10;99.90;;;;;;5051566;28;20886;-88
2022/04/03 05:17:27;;;;;;;6.00;4.18;;;-1.00;99.90;;;;;;5051040;28;20384;-87
2022/04/03 05:19:54;;;;;;;5.22;3.90;;;-1.00;99.90;;;;;;5051695;28;20534;-87
2022/04/03 05:22:23;;;;;;;4.50;3.43;;;-0.80;99.90;;;;;;5052823;28;20508;-87
2022/04/03 05:24:51;;;;;;;5.20;3.38;;;-0.80;99.90;;;;;;5049961;28;20525;-88
2022/04/03 05:27:17;;;;;;;5.10;3.45;;;-0.70;99.90;;;;;;5052987;28;20410;-87
2022/04/03 05:29:43;;;;;;;4.28;3.25;;;-0.60;99.90;;;;;;5054307;28;20372;-87
2022/04/03 05:32:09;;;;;;;5.43;3.83;;;-0.70;99.90;;;;;;5056120;28;20375;-88
2022/04/03 05:34:36;;;;;;;5.63;3.57;;;-0.80;99.90;;;;;;5055923;28;20386;-87
2022/04/03 05:37:02;;;;;;;5.20;3.37;;;-0.20;99.90;;;;;;5054830;28;20380;-87
2022/04/03 05:39:27;;;;;;;4.17;3.40;;;-0.50;99.90;;;;;;5053931;28;20445;-87
2022/04/03 05:41:55;;;;;;;4.80;3.50;;;-0.30;99.90;;;;;;5053700;28;20399;-87
2022/04/03 05:44:24;;;;;;;4.27;3.60;;;-0.50;99.90;;;;;;5034653;28;20392;-87
2022/04/03 05:46:51;;;;;;;4.00;3.60;;;-0.50;99.90;;;;;;5035178;28;20735;-87
2022/04/03 05:49:18;;;;;;;4.63;3.67;;;-0.50;99.90;;;;;;5052846;28;20400;-86
2022/04/03 05:51:43;;;;;;;3.42;3.13;;;-0.10;99.90;;;;;;5054464;28;20371;-87
2022/04/03 05:54:10;;;;;;;4.53;3.45;;;-0.50;99.90;;;;;;5053867;28;20414;-86
2022/04/03 05:56:36;;;;;;;5.03;3.97;;;0.30;99.90;;;;;;5052283;28;20446;-87
2022/04/03 05:59:02;;;;;;;7.85;5.00;;;0.50;99.90;;;;;;5053577;28;20878;-86
2022/04/03 06:01:28;;;;;;;5.50;4.50;;;0.90;99.90;;;;;;5052410;28;20483;-86
2022/04/03 06:03:53;;;;;;;4.13;3.53;;;0.50;99.90;;;;;;5052364;28;20431;-87
2022/04/03 06:06:19;;;;;;;4.47;3.93;;;1.00;99.90;;;;;;5052593;28;20380;-87
2022/04/03 06:08:45;;;;;;;5.32;3.50;;;1.20;99.90;;;;;;5053788;28;20391;-87
2022/04/03 06:11:12;;;;;;;6.35;3.53;;;1.50;99.90;;;;;;5053505;28;20379;-89
2022/04/03 06:13:37;;;;;;;5.82;3.50;;;2.10;99.90;;;;;;5053878;28;20423;-88
2022/04/03 06:16:03;;;;;;;4.28;3.85;;;2.30;99.90;;;;;;5053411;28;20469;-90
2022/04/03 06:18:29;;;;;;;5.15;3.65;;;1.80;99.90;;;;;;5053326;28;20762;-89
2022/04/03 06:20:54;;;;;;;7.22;3.80;;;2.00;99.90;;;;;;5052781;28;20395;-90
2022/04/03 06:23:22;;;;;;;7.20;4.03;;;2.60;99.90;;;;;;5053807;28;20400;-89
2022/04/03 06:25:52;;;;;;;7.65;4.00;;;2.40;99.90;;;;;;5053152;28;20406;-89
2022/04/03 06:28:20;;;;;;;5.83;4.13;;;2.60;99.90;;;;;;5054862;28;20392;-89
2022/04/03 06:30:46;;;;;;;4.35;3.40;;;2.90;99.90;;;;;;5053109;28;20408;-92
2022/04/03 06:33:12;;;;;;;4.00;3.60;;;2.60;99.90;;;;;;5052923;28;20409;-89
2022/04/03 06:35:39;;;;;;;5.80;3.55;;;2.20;99.90;;;;;;5052717;28;20459;-90
2022/04/03 06:38:04;;;;;;;4.00;3.40;;;2.70;99.90;;;;;;5052339;28;20422;-90
2022/04/03 06:40:32;;;;;;;6.30;3.67;;;2.90;99.90;;;;;;5052818;28;20368;-90
2022/04/03 06:42:59;;;;;;;4.40;3.40;;;3.60;99.90;;;;;;5052158;28;20540;-90
2022/04/03 06:45:25;;;;;;;3.77;3.37;;;3.90;99.90;;;;;;5052785;28;20398;-87
2022/04/03 06:47:51;;;;;;;4.73;3.23;;;3.20;99.90;;;;;;5052328;28;20375;-88
2022/04/03 06:50:17;;;;;;;4.87;2.90;;;3.00;99.90;;;;;;5052118;28;20789;-88
2022/04/03 06:52:42;;;;;;;4.13;3.33;;;3.20;99.90;;;;;;5051516;28;20400;-90
2022/04/03 06:55:08;;;;;;;3.90;3.07;;;3.50;99.90;;;;;;5052911;28;20973;-87
2022/04/03 06:57:34;;;;;;;5.35;3.03;;;3.30;99.90;;;;;;5052938;28;20409;-88
2022/04/03 07:00:00;;;;;;;3.90;3.22;;;3.40;99.90;;;;;;5052063;28;20383;-89
2022/04/03 07:02:26;;;;;;;4.47;2.97;;;3.60;99.90;;;;;;5050905;28;20400;-89
2022/04/03 07:04:51;;;;;;;4.67;3.17;;;3.90;99.90;;;;;;5052333;28;20426;-89
2022/04/03 07:07:24;;;;;;;4.37;3.23;;;3.60;99.90;;;;;;5050680;28;20379;-86
2022/04/03 07:09:51;;;;;;;4.50;3.27;;;3.90;99.90;;;;;;5051929;28;20395;-87
2022/04/03 07:12:17;;;;;;;4.72;3.83;;;3.20;99.90;;;;;;5052115;28;20387;-87
2022/04/03 07:14:49;;;;;;;4.63;3.80;;;3.90;99.90;;;;;;5050978;28;20821;-87
2022/04/03 07:17:16;;;;;;;3.67;3.17;;;3.40;99.90;;;;;;5051005;28;20475;-86
2022/04/03 07:19:42;;;;;;;3.70;2.83;;;3.20;99.90;;;;;;5050879;28;20912;-85
2022/04/03 07:22:07;;;;;;;5.82;3.10;;;3.30;99.90;;;;;;5051956;28;20387;-85
2022/04/03 07:24:33;;;;;;;3.80;3.08;;;2.90;99.90;;;;;;5052321;28;20468;-85
2022/04/03 07:26:59;;;;;;;5.47;3.13;;;3.20;99.90;;;;;;5050762;28;20726;-86
2022/04/03 07:29:25;;;;;;;3.73;2.77;;;3.40;99.90;;;;;;5052220;28;20394;-86
2022/04/03 07:31:51;;;;;;;4.13;2.80;;;3.20;99.90;;;;;;5050257;28;20722;-86
2022/04/03 07:34:18;;;;;;;4.38;2.83;;;4.20;99.90;;;;;;5050504;28;20816;-86
2022/04/03 07:36:44;;;;;;;3.42;2.70;;;4.30;99.90;;;;;;5051284;28;20402;-87
2022/04/03 07:39:10;;;;;;;3.42;2.88;;;3.90;99.90;;;;;;5053534;28;20414;-86
2022/04/03 07:41:37;;;;;;;4.07;2.80;;;4.20;99.90;;;;;;5050965;28;20436;-86
2022/04/03 07:44:07;;;;;;;5.43;3.33;;;4.40;99.90;;;;;;5050953;28;20380;-86
2022/04/03 07:46:32;;;;;;;5.10;2.80;;;4.70;99.10;;;;;;5053342;28;20396;-86
2022/04/03 07:48:58;;;;;;;5.13;2.80;;;5.00;98.80;;;;;;5052836;28;20395;-86
2022/04/03 07:51:24;;;;;;;4.20;2.60;;;4.90;97.90;;;;;;5051772;28;20402;-86
2022/04/03 07:53:50;;;;;;;3.60;3.15;;;4.90;97.80;;;;;;5050803;28;20380;-86
2022/04/03 07:56:16;;;;;;;3.85;3.20;;;4.70;98.10;;;;;;5050387;28;20788;-86
2022/04/03 07:58:42;;;;;;;4.30;3.30;;;5.00;98.40;;;;;;5051318;28;20458;-86
2022/04/03 08:01:07;;;;;;;4.90;3.13;;;5.00;98.70;;;;;;5051765;28;20380;-85
2022/04/03 08:03:33;;;;;;;4.33;3.13;;;5.40;98.50;;;;;;5056623;28;20380;-86
2022/04/03 08:05:59;;;;;;;4.18;3.25;;;5.20;98.10;;;;;;5054392;28;20479;-83
2022/04/03 08:08:24;;;;;;;5.28;3.25;;;5.30;96.20;;;;;;5052012;28;20384;-83
2022/04/03 08:10:53;;;;;;;2.75;2.13;;;;;;;;;;5052642;28;20376;-86
2022/04/03 08:13:22;;;;;;;5.28;2.50;;;;;;;;;;5053024;28;20492;-85
2022/04/03 08:15:49;;;;;;;4.05;2.55;;;;;;;;;;5050813;28;20392;-85
2022/04/03 08:18:15;;;;;;;3.83;3.42;;;;;;;;;;5051693;28;20376;-84
2022/04/03 08:20:41;;;;;;;4.20;2.97;;;;;;;;;;5054131;28;20448;-85
2022/04/03 08:23:07;;;;;;;5.22;3.80;;;;;;;;;;5053242;28;20400;-86
2022/04/03 08:25:33;;;;;;;4.50;3.20;;;;;;;;;;5053380;28;20890;-85
2022/04/03 08:28:03;;;;;;;3.72;2.67;;;;;;;;;;5055671;28;20375;-84
2022/04/03 08:30:30;;;;;;;4.50;3.28;;;;;;;;;;5056788;28;20916;-85
2022/04/03 08:32:58;;;;;;;3.13;2.70;;;;;;;;;;5054638;28;20861;-86
2022/04/03 08:35:26;;;;;;;2.72;2.10;;;;;;;;;;5048203;28;20398;-84
2022/04/03 08:37:52;;;;;;;3.97;2.38;;;;;;;;;;5044376;28;20474;-85
2022/04/03 08:40:21;;;;;;;3.80;2.50;;;;;;;;;;5040496;28;20828;-85
2022/04/03 08:42:47;;;;;;;3.13;2.13;;;;;;;;;;5039736;28;20913;-86
2022/04/03 08:45:13;;;;;;;6.18;2.80;;;;;;;;;;5041010;28;20403;-83
2022/04/03 08:47:44;;;;;;;3.00;2.10;;;;;;;;;;5041936;28;20383;-84
2022/04/03 08:50:10;;;;;;;3.50;2.20;;;;;;;;;;5048252;28;20396;-84
2022/04/03 08:52:36;;;;;;;5.18;2.45;;;;;;;;;;5043507;28;20395;-83
2022/04/03 08:55:06;;;;;;;4.57;2.40;;;;;;;;;;5040591;28;20403;-83
2022/04/03 08:57:33;;;;;;;4.03;2.60;;;;;;;;;;5039051;28;20436;-84
2022/04/03 09:00:00;;;;;;;4.25;2.42;;;;;;;;;;5041759;28;20418;-84
2022/04/03 09:02:26;;;;;;;2.95;2.38;;;;;;;;;;5039316;28;20441;-84
2022/04/03 09:04:52;;;;;;;3.85;2.42;;;;;;;;;;5041322;28;20842;-84
2022/04/03 09:07:19;;;;;;;2.80;2.40;;;;;;;;;;5043827;28;20374;-83
2022/04/03 09:09:47;;;;;;;2.63;1.90;;;;;;;;;;5036834;28;20386;-84
2022/04/03 09:12:16;;;;;;;4.65;2.10;;;;;;;;;;5047032;28;20371;-85
2022/04/03 09:14:56;;;;;;;2.25;2.05;;;;;;;;;;5036912;28;20377;-84
2022/04/03 09:17:31;;;;;;;4.97;2.38;;;;;;;;;;5033104;28;20388;-86
2022/04/03 09:19:59;;;;;;;2.13;1.70;;;;;;;;;;5029640;28;20409;-85
2022/04/03 09:22:28;;;;;;;3.00;2.08;;;;;;;;;;5033318;28;20409;-86
2022/04/03 09:24:55;;;;;;;3.45;2.35;;;;;;;;;;5041227;28;20385;-85
2022/04/03 09:27:24;;;;;;;3.97;2.40;;;;;;;;;;5036062;28;20450;-85
2022/04/03 09:30:01;;;;;;;3.42;2.10;;;;;;;;;;5041114;28;20379;-84
2022/04/03 09:32:27;;;;;;;3.03;2.00;;;;;;;;;;5036223;28;20441;-87
2022/04/03 09:34:56;;;;;;;4.75;2.33;;;;;;;;;;5039571;28;20394;-86
2022/04/03 09:37:22;;;;;;;4.68;1.95;;;;;;;;;;5040071;28;20467;-84
2022/04/03 09:39:48;;;;;;;5.03;2.20;;;;;;;;;;5039934;28;20384;-85
2022/04/03 09:42:15;;;;;;;4.45;2.05;;;;;;;;;;5039247;28;20412;-86
2022/04/03 09:44:46;;;;;;;3.50;1.70;;;;;;;;;;5039446;28;20383;-86
2022/04/03 09:47:15;;;;;;;6.38;2.17;;;;;;;;;;5036533;28;20416;-84
2022/04/03 09:49:43;;;;;;;3.53;1.80;;;;;;;;;;5033001;28;20393;-84
2022/04/03 09:52:12;;;;;;;3.45;2.20;;;;;;;;;;5028222;28;20916;-86
2022/04/03 09:54:39;;;;;;;4.05;2.15;;;;;;;;;;5040444;28;20388;-86
2022/04/03 09:57:21;;;;;;;2.95;2.28;;;;;;;;;;5038294;28;20453;-85
2022/04/03 09:59:54;;;;;;;10.68;2.70;;;;;;;;;;5031315;28;20384;-85
2022/04/03 10:02:24;;;;;;;4.25;2.30;;;;;;;;;;5043785;28;20407;-85
2022/04/03 10:04:50;;;;;;;3.53;2.17;;;;;;;;;;5048372;28;20939;-84
2022/04/03 10:07:17;;;;;;;4.78;2.30;;;;;;;;;;5047422;28;20423;-84
2022/04/03 10:09:50;;;;;;;4.32;2.33;;;;;;;;;;5043264;28;20370;-86
2022/04/03 10:12:17;;;;;;;3.15;2.10;;;;;;;;;;5038189;28;20373;-84
2022/04/03 10:14:44;;;;;;;3.10;2.38;;;;;;;;;;5039594;28;20413;-86
2022/04/03 10:17:10;;;;;;;3.85;2.55;;;;;;;;;;5042500;28;20400;-85
2022/04/03 10:19:37;;;;;;;3.00;2.10;;;;;;;;;;5041093;28;20889;-84
2022/04/03 10:22:04;;;;;;;3.05;2.10;;;;;;;;;;5040906;28;20811;-85
2022/04/03 10:24:31;;;;;;;4.07;2.05;;;;;;;;;;5044928;28;20391;-87
2022/04/03 10:27:13;;;;;;;3.92;2.10;;;;;;;;;;5045291;28;20383;-85
2022/04/03 10:29:40;;;;;;;2.30;2.10;;;;;;;;;;5041971;28;20464;-85
2022/04/03 10:32:07;;;;;;;3.58;2.13;;;;;;;;;;5041661;28;20372;-85
2022/04/03 10:34:56;;;;;;;4.13;2.05;;;;;;;;;;5050413;28;20387;-84
2022/04/03 10:37:23;;;;;;;4.22;2.40;;;;;;;;;;5040750;28;20393;-86
2022/04/03 10:39:54;;;;;;;4.20;2.28;;;;;;;;;;5040746;28;20441;-86
2022/04/03 10:42:25;;;;;;;7.13;3.20;;;;;;;;;;5042142;28;20399;-84
2022/04/03 10:45:10;;;;;;;3.83;2.38;;;;;;;;;;5043217;28;20373;-87
2022/04/03 10:47:36;;;;;;;3.97;2.30;;;;;;;;;;5045512;28;20384;-86
2022/04/03 10:50:04;;;;;;;3.53;2.27;;;;;;;;;;5044529;28;20397;-84
2022/04/03 10:52:39;;;;;;;4.68;2.80;;;;;;;;;;5040562;28;20399;-85
2022/04/03 10:55:15;;;;;;;5.20;2.50;;;;;;;;;;5042767;28;20458;-84
2022/04/03 10:57:51;;;;;;;3.88;2.25;;;;;;;;;;5042056;28;20425;-84
2022/04/03 11:00:17;;;;;;;4.17;2.40;;;;;;;;;;5043260;28;20474;-84
2022/04/03 11:02:44;;;;;;;4.30;2.45;;;;;;;;;;5048679;28;20882;-84
2022/04/03 11:05:23;;;;;;;5.35;2.25;;;;;;;;;;5048642;28;20396;-85
2022/04/03 11:08:01;;;;;;;4.88;2.47;;;;;;;;;;5049557;28;20387;-87
2022/04/03 11:10:54;;;;;;;4.22;2.08;;;;;;;;;;5041814;28;20446;-85
2022/04/03 11:13:29;;;;;;;3.15;1.95;;;;;;;;;;5046563;28;20389;-84
2022/04/03 11:15:56;;;;;;;4.20;2.10;;;;;;;;;;5049291;28;20471;-85
2022/04/03 11:18:34;;;;;;;4.17;2.03;;;;;;;;;;5049340;28;20381;-86
2022/04/03 11:21:14;;;;;;;3.20;2.00;;;;;;;;;;5034189;28;20408;-84
2022/04/03 11:23:42;;;;;;;3.65;2.08;;;;;;;;;;5049898;28;20412;-86
2022/04/03 11:26:08;;;;;;;5.00;2.10;;;;;;;;;;5052808;28;20431;-86
2022/04/03 11:28:34;;;;;;;5.25;2.53;;;;;;;;;;5050564;28;20465;-85
2022/04/03 11:31:01;;;;;;;5.30;2.50;;;;;;;;;;5049950;28;20384;-87
2022/04/03 11:33:31;;;;;;;3.17;2.30;;;;;;;;;;5046787;28;20447;-87
2022/04/03 11:36:04;;;;;;;2.75;1.75;;;;;;;;;;5034918;28;20876;-85
2022/04/03 11:38:49;;;;;;;3.67;1.90;;;;;;;;;;5039999;28;20398;-86
2022/04/03 11:41:31;;;;;;;6.00;2.43;;;;;;;;;;5039167;28;20376;-84
2022/04/03 11:44:00;;;;;;;3.88;2.22;;;;;;;;;;5040748;28;20433;-85
2022/04/03 11:46:26;;;;;;;7.93;2.25;;;;;;;;;;5038505;28;20381;-83
2022/04/03 11:48:52;;;;;;;3.15;2.22;;;;;;;;;;5038392;28;20501;-87
2022/04/03 11:51:19;;;;;;;2.45;1.77;;;;;;;;;;5042139;28;20371;-85
2022/04/03 11:53:47;;;;;;;3.38;1.75;;;;;;;;;;5042310;28;20463;-86
2022/04/03 11:56:17;;;;;;;2.92;2.00;;;;;;;;;;5041235;28;20414;-85
2022/04/03 11:58:45;;;;;;;15.48;2.20;;;;;;;;;;5039100;28;20398;-86
2022/04/03 12:01:11;;;;;;;6.73;2.40;;;;;;;;;;5039154;28;20480;-84
2022/04/03 12:03:37;;;;;;;4.43;2.42;;;;;;;;;;5042063;28;20396;-85
2022/04/03 12:06:15;;;;;;;5.60;2.10;;;;;;;;;;5039259;28;20469;-85
2022/04/03 12:08:41;;;;;;;3.85;2.25;;;;;;;;;;5040471;28;20943;-84
2022/04/03 12:11:17;;;;;;;4.83;2.17;;;;;;;;;;5040535;28;20369;-86
2022/04/03 12:13:44;;;;;;;4.22;2.20;;;;;;;;;;5039998;28;20384;-86
2022/04/03 12:16:21;;;;;;;4.13;2.03;;;;;;;;;;5045757;28;20375;-85
2022/04/03 12:18:50;;;;;;;2.85;2.33;;;;;;;;;;5039992;28;20390;-84
2022/04/03 12:21:17;;;;;;;5.15;2.08;;;;;;;;;;5033053;28;20387;-85
2022/04/03 12:24:06;;;;;;;4.75;2.05;;;;;;;;;;5033704;28;20422;-87
2022/04/03 12:26:32;;;;;;;3.73;2.00;;;;;;;;;;5045282;28;20364;-85
2022/04/03 12:28:58;;;;;;;5.50;2.15;;;;;;;;;;5041319;28;20387;-84
2022/04/03 12:31:28;;;;;;;4.45;1.65;;;;;;;;;;5045949;28;20380;-86
2022/04/03 12:34:08;;;;;;;4.35;1.50;;;;;;;;;;5035089;28;20747;-88
2022/04/03 12:36:38;;;;;;;3.70;1.70;;;;;;;;;;5046289;28;20436;-87
2022/04/03 12:39:04;;;;;;;2.40;1.50;;;;;;;;;;5040951;28;20400;-85
2022/04/03 12:41:30;;;;;;;4.70;1.90;;;;;;;;;;5035032;28;20467;-85
2022/04/03 12:43:56;;;;;;;5.53;1.55;;;;;;;;;;5042675;28;20487;-87
2022/04/03 12:46:22;;;;;;;3.00;1.48;;;;;;;;;;5046518;28;20378;-85
2022/04/03 12:48:52;;;;;;;3.70;1.70;;;;;;;;;;5035712;28;20494;-85
2022/04/03 12:51:18;;;;;;;2.53;1.53;;;;;;;;;;5036518;28;20384;-86
2022/04/03 12:53:51;;;;;;;2.67;1.50;;;;;;;;;;5035986;28;20397;-85
2022/04/03 12:56:17;;;;;;;3.15;1.45;;;;;;;;;;5042336;28;20442;-85
2022/04/03 12:58:48;;;;;;;3.83;3.10;;;;;;;;;;5045437;28;20406;-86
2022/04/03 13:01:14;;;;;;;5.15;4.45;;;;;;;;;;5042787;28;20409;-85
2022/04/03 13:03:45;;;;;;;3.53;2.95;;;;;;;;;;5045198;28;20389;-87
2022/04/03 13:06:11;;;;;;;5.50;2.10;;;;;;;;;;5047069;28;20366;-85
2022/04/03 13:09:03;;;;;;;5.13;2.55;;;;;;;;;;5052989;28;20394;-87
2022/04/03 13:11:47;;;;;;;5.75;3.30;;;;;;;;;;5040411;28;20782;-85
2022/04/03 13:14:19;;;;;;;6.18;1.95;;;;;;;;;;5040109;28;20448;-85
2022/04/03 13:16:46;;;;;;;5.27;3.03;;;;;;;;;;5041344;28;20398;-88
2022/04/03 13:19:12;;;;;;;14.50;10.77;;;;;;;;;;5034372;28;20409;-84
2022/04/03 13:21:42;;;;;;;3.38;1.70;;;;;;;;;;5037207;28;20407;-86
2022/04/03 13:24:09;;;;;;;16.75;10.85;;;;;;;;;;5038533;28;20901;-83
2022/04/03 13:26:35;;;;;;;6.88;3.10;;;;;;;;;;5049205;28;20379;-85
2022/04/03 13:29:02;;;;;;;3.92;2.33;;;;;;;;;;5046609;28;20380;-87